sensor_id;sensor_type;location;lat;lon;timestamp;temperature;humidity
802;DHT22;383;48.766;9.270;2023-07-24T00:01:04;20.80;78.70
802;DHT22;383;48.766;9.270;2023-07-24T00:03:31;20.90;78.20
802;DHT22;383;48.766;9.270;2023-07-24T00:05:59;21.00;77.70
802;DHT22;383;48.766;9.270;2023-07-24T00:08:26;20.90;78.30
802;DHT22;383;48.766;9.270;2023-07-24T00:10:52;20.80;76.70
802;DHT22;383;48.766;9.270;2023-07-24T00:13:19;20.90;75.60
802;DHT22;383;48.766;9.270;2023-07-24T00:15:46;20.90;74.90
802;DHT22;383;48.766;9.270;2023-07-24T00:18:13;20.90;74.50
802;DHT22;383;48.766;9.270;2023-07-24T00:20:40;21.00;74.60
802;DHT22;383;48.766;9.270;2023-07-24T00:23:08;21.10;74.90
802;DHT22;383;48.766;9.270;2023-07-24T00:25:34;21.10;73.60
802;DHT22;383;48.766;9.270;2023-07-24T00:28:01;21.20;73.60
802;DHT22;383;48.766;9.270;2023-07-24T00:30:28;21.20;76.60
802;DHT22;383;48.766;9.270;2023-07-24T00:32:54;21.10;77.70
802;DHT22;383;48.766;9.270;2023-07-24T00:35:21;21.00;78.90
802;DHT22;383;48.766;9.270;2023-07-24T00:37:47;20.90;78.90
802;DHT22;383;48.766;9.270;2023-07-24T00:40:15;20.80;79.30
802;DHT22;383;48.766;9.270;2023-07-24T00:42:46;20.80;80.40
802;DHT22;383;48.766;9.270;2023-07-24T00:45:13;20.60;81.80
802;DHT22;383;48.766;9.270;2023-07-24T00:47:40;20.60;82.70
802;DHT22;383;48.766;9.270;2023-07-24T00:50:07;20.60;82.30
802;DHT22;383;48.766;9.270;2023-07-24T00:52:35;20.60;82.30
802;DHT22;383;48.766;9.270;2023-07-24T00:55:02;20.60;81.50
802;DHT22;383;48.766;9.270;2023-07-24T00:57:31;20.60;81.80
802;DHT22;383;48.766;9.270;2023-07-24T00:59:58;20.50;82.20
802;DHT22;383;48.766;9.270;2023-07-24T01:02:26;20.50;81.00
802;DHT22;383;48.766;9.270;2023-07-24T01:04:53;20.50;79.90
802;DHT22;383;48.766;9.270;2023-07-24T01:07:20;20.50;80.60
802;DHT22;383;48.766;9.270;2023-07-24T01:09:47;20.50;81.80
802;DHT22;383;48.766;9.270;2023-07-24T01:12:19;20.40;82.20
802;DHT22;383;48.766;9.270;2023-07-24T01:14:53;20.40;82.20
802;DHT22;383;48.766;9.270;2023-07-24T01:17:24;20.30;82.20
802;DHT22;383;48.766;9.270;2023-07-24T01:19:55;20.30;81.50
802;DHT22;383;48.766;9.270;2023-07-24T01:22:32;20.30;81.00
802;DHT22;383;48.766;9.270;2023-07-24T01:25:10;20.30;79.90
802;DHT22;383;48.766;9.270;2023-07-24T01:27:42;20.30;79.80
802;DHT22;383;48.766;9.270;2023-07-24T01:30:09;20.20;80.40
802;DHT22;383;48.766;9.270;2023-07-24T01:32:36;20.10;80.80
802;DHT22;383;48.766;9.270;2023-07-24T01:35:04;20.10;81.60
802;DHT22;383;48.766;9.270;2023-07-24T01:37:31;20.00;81.60
802;DHT22;383;48.766;9.270;2023-07-24T01:40:00;19.90;80.60
802;DHT22;383;48.766;9.270;2023-07-24T01:42:27;19.90;79.70
802;DHT22;383;48.766;9.270;2023-07-24T01:44:56;19.90;79.90
802;DHT22;383;48.766;9.270;2023-07-24T01:47:22;19.90;79.70
802;DHT22;383;48.766;9.270;2023-07-24T01:49:49;19.90;79.90
802;DHT22;383;48.766;9.270;2023-07-24T01:52:17;19.90;80.00
802;DHT22;383;48.766;9.270;2023-07-24T01:54:44;19.80;79.40
802;DHT22;383;48.766;9.270;2023-07-24T01:57:11;19.80;78.90
802;DHT22;383;48.766;9.270;2023-07-24T01:59:37;19.90;78.50
802;DHT22;383;48.766;9.270;2023-07-24T02:02:05;19.90;78.70
802;DHT22;383;48.766;9.270;2023-07-24T02:04:32;19.90;78.50
802;DHT22;383;48.766;9.270;2023-07-24T02:06:59;19.90;78.50
802;DHT22;383;48.766;9.270;2023-07-24T02:09:25;20.00;77.70
802;DHT22;383;48.766;9.270;2023-07-24T02:11:52;20.00;78.10
802;DHT22;383;48.766;9.270;2023-07-24T02:14:19;20.00;78.10
802;DHT22;383;48.766;9.270;2023-07-24T02:16:46;19.90;78.10
802;DHT22;383;48.766;9.270;2023-07-24T02:19:14;19.80;78.50
802;DHT22;383;48.766;9.270;2023-07-24T02:21:41;19.80;79.10
802;DHT22;383;48.766;9.270;2023-07-24T02:24:07;19.80;79.70
802;DHT22;383;48.766;9.270;2023-07-24T02:26:34;19.80;79.80
802;DHT22;383;48.766;9.270;2023-07-24T02:29:01;19.90;79.90
802;DHT22;383;48.766;9.270;2023-07-24T02:31:27;19.80;80.00
802;DHT22;383;48.766;9.270;2023-07-24T02:33:54;19.80;79.80
802;DHT22;383;48.766;9.270;2023-07-24T02:36:22;19.80;79.80
802;DHT22;383;48.766;9.270;2023-07-24T02:38:49;19.80;80.20
802;DHT22;383;48.766;9.270;2023-07-24T02:41:15;19.80;80.30
802;DHT22;383;48.766;9.270;2023-07-24T02:43:42;19.80;80.30
802;DHT22;383;48.766;9.270;2023-07-24T02:46:09;19.80;80.30
802;DHT22;383;48.766;9.270;2023-07-24T02:48:35;19.80;80.30
802;DHT22;383;48.766;9.270;2023-07-24T02:51:02;19.80;80.80
802;DHT22;383;48.766;9.270;2023-07-24T02:53:30;19.70;80.70
802;DHT22;383;48.766;9.270;2023-07-24T02:55:57;19.70;80.40
802;DHT22;383;48.766;9.270;2023-07-24T02:58:23;19.70;81.00
802;DHT22;383;48.766;9.270;2023-07-24T03:00:50;19.70;80.70
802;DHT22;383;48.766;9.270;2023-07-24T03:03:17;19.60;81.20
802;DHT22;383;48.766;9.270;2023-07-24T03:05:43;19.50;81.60
802;DHT22;383;48.766;9.270;2023-07-24T03:08:10;19.50;81.50
802;DHT22;383;48.766;9.270;2023-07-24T03:10:41;19.50;81.40
802;DHT22;383;48.766;9.270;2023-07-24T03:13:08;19.50;81.40
802;DHT22;383;48.766;9.270;2023-07-24T03:15:34;19.40;81.80
802;DHT22;383;48.766;9.270;2023-07-24T03:18:01;19.30;82.20
802;DHT22;383;48.766;9.270;2023-07-24T03:20:28;19.20;82.60
802;DHT22;383;48.766;9.270;2023-07-24T03:22:54;19.20;83.00
802;DHT22;383;48.766;9.270;2023-07-24T03:25:21;19.10;83.10
802;DHT22;383;48.766;9.270;2023-07-24T03:27:49;19.10;83.00
802;DHT22;383;48.766;9.270;2023-07-24T03:30:16;19.10;82.80
802;DHT22;383;48.766;9.270;2023-07-24T03:32:43;19.00;83.40
802;DHT22;383;48.766;9.270;2023-07-24T03:35:09;18.90;83.90
802;DHT22;383;48.766;9.270;2023-07-24T03:37:36;18.90;83.50
802;DHT22;383;48.766;9.270;2023-07-24T03:40:04;18.80;84.10
802;DHT22;383;48.766;9.270;2023-07-24T03:42:31;18.70;84.50
802;DHT22;383;48.766;9.270;2023-07-24T03:44:59;18.70;84.70
802;DHT22;383;48.766;9.270;2023-07-24T03:47:26;18.80;84.30
802;DHT22;383;48.766;9.270;2023-07-24T03:49:53;18.80;84.10
802;DHT22;383;48.766;9.270;2023-07-24T03:52:20;18.80;84.40
802;DHT22;383;48.766;9.270;2023-07-24T03:54:47;18.70;84.70
802;DHT22;383;48.766;9.270;2023-07-24T03:57:13;18.80;84.70
802;DHT22;383;48.766;9.270;2023-07-24T03:59:40;18.80;84.10
802;DHT22;383;48.766;9.270;2023-07-24T04:02:08;18.90;84.00
802;DHT22;383;48.766;9.270;2023-07-24T04:04:35;18.90;84.30
802;DHT22;383;48.766;9.270;2023-07-24T04:07:02;19.00;84.30
802;DHT22;383;48.766;9.270;2023-07-24T04:09:29;18.90;84.80
802;DHT22;383;48.766;9.270;2023-07-24T04:11:56;19.00;84.40
802;DHT22;383;48.766;9.270;2023-07-24T04:14:22;19.00;82.80
802;DHT22;383;48.766;9.270;2023-07-24T04:16:49;19.10;83.00
802;DHT22;383;48.766;9.270;2023-07-24T04:19:17;19.10;82.80
802;DHT22;383;48.766;9.270;2023-07-24T04:21:44;19.20;82.70
802;DHT22;383;48.766;9.270;2023-07-24T04:26:38;19.30;82.20
802;DHT22;383;48.766;9.270;2023-07-24T04:29:06;19.40;81.80
802;DHT22;383;48.766;9.270;2023-07-24T04:31:32;19.40;82.30
802;DHT22;383;48.766;9.270;2023-07-24T04:33:59;19.50;82.20
802;DHT22;383;48.766;9.270;2023-07-24T04:36:27;19.60;81.80
802;DHT22;383;48.766;9.270;2023-07-24T04:38:54;19.70;81.60
802;DHT22;383;48.766;9.270;2023-07-24T04:41:21;19.80;81.50
802;DHT22;383;48.766;9.270;2023-07-24T04:43:47;19.90;81.50
802;DHT22;383;48.766;9.270;2023-07-24T04:46:14;20.00;80.60
802;DHT22;383;48.766;9.270;2023-07-24T04:48:41;20.00;81.20
802;DHT22;383;48.766;9.270;2023-07-24T04:51:07;20.10;80.20
802;DHT22;383;48.766;9.270;2023-07-24T04:53:35;20.10;80.00
802;DHT22;383;48.766;9.270;2023-07-24T04:56:02;20.20;80.30
802;DHT22;383;48.766;9.270;2023-07-24T04:58:29;20.30;80.60
802;DHT22;383;48.766;9.270;2023-07-24T05:00:56;20.30;80.30
802;DHT22;383;48.766;9.270;2023-07-24T05:03:22;20.30;80.40
802;DHT22;383;48.766;9.270;2023-07-24T05:05:54;20.40;80.40
802;DHT22;383;48.766;9.270;2023-07-24T05:08:21;20.40;80.30
802;DHT22;383;48.766;9.270;2023-07-24T05:10:53;20.50;79.90
802;DHT22;383;48.766;9.270;2023-07-24T05:13:20;20.60;79.50
802;DHT22;383;48.766;9.270;2023-07-24T05:15:47;20.60;79.70
802;DHT22;383;48.766;9.270;2023-07-24T05:18:14;20.70;78.90
802;DHT22;383;48.766;9.270;2023-07-24T05:20:44;20.80;78.90
802;DHT22;383;48.766;9.270;2023-07-24T05:23:10;20.90;79.00
802;DHT22;383;48.766;9.270;2023-07-24T05:25:37;20.90;78.10
802;DHT22;383;48.766;9.270;2023-07-24T05:28:05;21.00;78.10
802;DHT22;383;48.766;9.270;2023-07-24T05:30:32;21.10;78.30
802;DHT22;383;48.766;9.270;2023-07-24T05:32:59;21.20;77.10
802;DHT22;383;48.766;9.270;2023-07-24T05:35:26;21.20;76.60
802;DHT22;383;48.766;9.270;2023-07-24T05:37:52;21.30;76.70
802;DHT22;383;48.766;9.270;2023-07-24T05:40:19;21.40;76.70
802;DHT22;383;48.766;9.270;2023-07-24T05:42:46;21.40;76.70
802;DHT22;383;48.766;9.270;2023-07-24T05:45:14;21.50;76.20
802;DHT22;383;48.766;9.270;2023-07-24T05:47:41;21.50;76.00
802;DHT22;383;48.766;9.270;2023-07-24T05:50:08;21.50;76.50
802;DHT22;383;48.766;9.270;2023-07-24T05:52:35;21.50;76.90
802;DHT22;383;48.766;9.270;2023-07-24T05:55:02;21.60;76.10
802;DHT22;383;48.766;9.270;2023-07-24T05:57:29;21.60;76.50
802;DHT22;383;48.766;9.270;2023-07-24T05:59:55;21.60;76.60
802;DHT22;383;48.766;9.270;2023-07-24T06:02:23;21.60;75.80
802;DHT22;383;48.766;9.270;2023-07-24T06:04:50;21.50;74.60
802;DHT22;383;48.766;9.270;2023-07-24T06:07:17;21.60;74.40
802;DHT22;383;48.766;9.270;2023-07-24T06:09:43;21.60;74.40
802;DHT22;383;48.766;9.270;2023-07-24T06:12:10;21.60;74.50
802;DHT22;383;48.766;9.270;2023-07-24T06:14:37;21.60;74.60
802;DHT22;383;48.766;9.270;2023-07-24T06:17:04;21.60;74.60
802;DHT22;383;48.766;9.270;2023-07-24T06:19:32;21.60;75.00
802;DHT22;383;48.766;9.270;2023-07-24T06:21:58;21.70;74.40
802;DHT22;383;48.766;9.270;2023-07-24T06:24:25;21.70;74.40
802;DHT22;383;48.766;9.270;2023-07-24T06:26:52;21.80;74.10
802;DHT22;383;48.766;9.270;2023-07-24T06:29:18;21.80;74.60
802;DHT22;383;48.766;9.270;2023-07-24T06:31:45;21.90;73.00
802;DHT22;383;48.766;9.270;2023-07-24T06:34:12;21.80;73.40
802;DHT22;383;48.766;9.270;2023-07-24T06:36:40;21.90;73.80
802;DHT22;383;48.766;9.270;2023-07-24T06:39:06;21.90;73.40
802;DHT22;383;48.766;9.270;2023-07-24T06:41:33;22.10;73.70
802;DHT22;383;48.766;9.270;2023-07-24T06:44:00;22.10;72.80
802;DHT22;383;48.766;9.270;2023-07-24T06:46:26;22.30;72.60
802;DHT22;383;48.766;9.270;2023-07-24T06:48:53;22.40;72.30
802;DHT22;383;48.766;9.270;2023-07-24T06:51:20;22.50;71.70
802;DHT22;383;48.766;9.270;2023-07-24T06:53:48;22.60;72.30
802;DHT22;383;48.766;9.270;2023-07-24T06:56:14;22.60;71.20
802;DHT22;383;48.766;9.270;2023-07-24T06:58:41;22.60;71.20
802;DHT22;383;48.766;9.270;2023-07-24T07:01:08;22.60;70.70
802;DHT22;383;48.766;9.270;2023-07-24T07:03:35;22.70;70.30
802;DHT22;383;48.766;9.270;2023-07-24T07:06:02;22.70;70.70
802;DHT22;383;48.766;9.270;2023-07-24T07:08:30;22.80;70.40
802;DHT22;383;48.766;9.270;2023-07-24T07:10:58;22.70;70.50
802;DHT22;383;48.766;9.270;2023-07-24T07:13:25;22.70;70.40
802;DHT22;383;48.766;9.270;2023-07-24T07:15:52;22.70;71.20
802;DHT22;383;48.766;9.270;2023-07-24T07:18:19;22.70;70.80
802;DHT22;383;48.766;9.270;2023-07-24T07:20:46;22.70;70.70
802;DHT22;383;48.766;9.270;2023-07-24T07:23:13;22.80;70.30
802;DHT22;383;48.766;9.270;2023-07-24T07:25:39;22.80;71.10
802;DHT22;383;48.766;9.270;2023-07-24T07:28:07;22.80;71.50
802;DHT22;383;48.766;9.270;2023-07-24T07:30:34;22.80;71.50
802;DHT22;383;48.766;9.270;2023-07-24T07:33:01;22.90;71.20
802;DHT22;383;48.766;9.270;2023-07-24T07:35:28;22.80;70.70
802;DHT22;383;48.766;9.270;2023-07-24T07:37:55;22.80;71.20
802;DHT22;383;48.766;9.270;2023-07-24T07:40:22;22.80;71.20
802;DHT22;383;48.766;9.270;2023-07-24T07:42:48;22.80;71.30
802;DHT22;383;48.766;9.270;2023-07-24T07:45:17;22.90;72.10
802;DHT22;383;48.766;9.270;2023-07-24T07:47:43;22.90;71.70
802;DHT22;383;48.766;9.270;2023-07-24T07:50:10;22.90;71.90
802;DHT22;383;48.766;9.270;2023-07-24T07:52:37;23.00;71.90
802;DHT22;383;48.766;9.270;2023-07-24T07:55:04;23.00;72.00
802;DHT22;383;48.766;9.270;2023-07-24T07:57:33;23.10;71.70
802;DHT22;383;48.766;9.270;2023-07-24T08:00:00;23.10;71.60
802;DHT22;383;48.766;9.270;2023-07-24T08:02:28;23.30;71.10
802;DHT22;383;48.766;9.270;2023-07-24T08:04:55;23.30;71.30
802;DHT22;383;48.766;9.270;2023-07-24T08:07:22;23.40;71.60
802;DHT22;383;48.766;9.270;2023-07-24T08:09:49;23.40;71.90
802;DHT22;383;48.766;9.270;2023-07-24T08:12:16;23.40;72.10
802;DHT22;383;48.766;9.270;2023-07-24T08:14:42;23.50;71.60
802;DHT22;383;48.766;9.270;2023-07-24T08:17:09;23.50;72.30
802;DHT22;383;48.766;9.270;2023-07-24T08:19:37;23.50;72.50
802;DHT22;383;48.766;9.270;2023-07-24T08:22:04;23.30;72.80
802;DHT22;383;48.766;9.270;2023-07-24T08:24:33;23.30;74.00
802;DHT22;383;48.766;9.270;2023-07-24T08:27:00;23.30;76.30
802;DHT22;383;48.766;9.270;2023-07-24T08:29:27;23.30;79.90
802;DHT22;383;48.766;9.270;2023-07-24T08:31:53;23.00;82.20
802;DHT22;383;48.766;9.270;2023-07-24T08:34:20;22.90;84.40
802;DHT22;383;48.766;9.270;2023-07-24T08:36:48;22.70;85.30
802;DHT22;383;48.766;9.270;2023-07-24T08:39:15;22.70;87.10
802;DHT22;383;48.766;9.270;2023-07-24T08:41:42;22.60;88.20
802;DHT22;383;48.766;9.270;2023-07-24T08:44:09;22.50;89.60
802;DHT22;383;48.766;9.270;2023-07-24T08:46:36;22.50;90.90
802;DHT22;383;48.766;9.270;2023-07-24T08:49:04;22.50;89.60
802;DHT22;383;48.766;9.270;2023-07-24T08:51:31;22.30;88.10
802;DHT22;383;48.766;9.270;2023-07-24T08:54:01;22.20;89.40
802;DHT22;383;48.766;9.270;2023-07-24T08:56:29;22.10;89.40
802;DHT22;383;48.766;9.270;2023-07-24T08:58:56;22.10;89.70
802;DHT22;383;48.766;9.270;2023-07-24T09:01:22;22.00;89.90
802;DHT22;383;48.766;9.270;2023-07-24T09:03:49;22.10;90.40
802;DHT22;383;48.766;9.270;2023-07-24T09:06:16;22.10;91.00
802;DHT22;383;48.766;9.270;2023-07-24T09:08:43;22.10;90.10
802;DHT22;383;48.766;9.270;2023-07-24T09:11:14;22.10;90.30
802;DHT22;383;48.766;9.270;2023-07-24T09:13:42;22.20;90.60
802;DHT22;383;48.766;9.270;2023-07-24T09:16:09;22.20;90.70
802;DHT22;383;48.766;9.270;2023-07-24T09:18:46;22.30;90.70
802;DHT22;383;48.766;9.270;2023-07-24T09:21:13;22.40;91.20
802;DHT22;383;48.766;9.270;2023-07-24T09:23:40;22.60;90.30
802;DHT22;383;48.766;9.270;2023-07-24T09:26:08;22.80;89.80
802;DHT22;383;48.766;9.270;2023-07-24T09:28:36;23.00;89.40
802;DHT22;383;48.766;9.270;2023-07-24T09:31:03;23.20;89.00
802;DHT22;383;48.766;9.270;2023-07-24T09:33:35;23.40;87.60
802;DHT22;383;48.766;9.270;2023-07-24T09:36:02;23.60;85.10
802;DHT22;383;48.766;9.270;2023-07-24T09:38:29;23.80;82.80
802;DHT22;383;48.766;9.270;2023-07-24T09:40:57;23.90;83.50
802;DHT22;383;48.766;9.270;2023-07-24T09:43:25;24.00;82.20
802;DHT22;383;48.766;9.270;2023-07-24T09:45:54;24.10;81.60
802;DHT22;383;48.766;9.270;2023-07-24T09:48:22;24.10;81.00
802;DHT22;383;48.766;9.270;2023-07-24T09:50:52;24.10;78.90
802;DHT22;383;48.766;9.270;2023-07-24T09:53:21;24.10;80.00
802;DHT22;383;48.766;9.270;2023-07-24T09:55:52;24.10;80.40
802;DHT22;383;48.766;9.270;2023-07-24T09:58:20;24.10;79.50
802;DHT22;383;48.766;9.270;2023-07-24T10:00:48;24.10;80.60
802;DHT22;383;48.766;9.270;2023-07-24T10:03:17;24.10;79.90
802;DHT22;383;48.766;9.270;2023-07-24T10:05:46;24.00;79.80
802;DHT22;383;48.766;9.270;2023-07-24T10:08:14;23.90;79.30
802;DHT22;383;48.766;9.270;2023-07-24T10:10:41;23.90;79.90
802;DHT22;383;48.766;9.270;2023-07-24T10:13:09;23.80;80.00
802;DHT22;383;48.766;9.270;2023-07-24T10:15:38;23.80;81.00
802;DHT22;383;48.766;9.270;2023-07-24T10:18:07;23.70;81.40
802;DHT22;383;48.766;9.270;2023-07-24T10:20:36;23.60;81.40
802;DHT22;383;48.766;9.270;2023-07-24T10:23:04;23.50;82.30
802;DHT22;383;48.766;9.270;2023-07-24T10:25:32;23.50;82.70
802;DHT22;383;48.766;9.270;2023-07-24T10:28:03;23.50;83.50
802;DHT22;383;48.766;9.270;2023-07-24T10:30:33;23.50;82.40
802;DHT22;383;48.766;9.270;2023-07-24T10:33:07;23.40;82.40
802;DHT22;383;48.766;9.270;2023-07-24T10:35:40;23.20;83.40
802;DHT22;383;48.766;9.270;2023-07-24T10:38:07;23.10;85.20
802;DHT22;383;48.766;9.270;2023-07-24T10:40:34;23.00;86.90
802;DHT22;383;48.766;9.270;2023-07-24T10:43:04;22.90;89.30
802;DHT22;383;48.766;9.270;2023-07-24T10:45:42;22.80;90.70
802;DHT22;383;48.766;9.270;2023-07-24T10:48:09;22.80;91.30
802;DHT22;383;48.766;9.270;2023-07-24T10:50:39;22.70;91.60
802;DHT22;383;48.766;9.270;2023-07-24T10:53:06;22.60;92.70
802;DHT22;383;48.766;9.270;2023-07-24T10:55:33;22.40;93.40
802;DHT22;383;48.766;9.270;2023-07-24T10:57:59;22.40;93.70
802;DHT22;383;48.766;9.270;2023-07-24T11:00:26;22.30;94.00
802;DHT22;383;48.766;9.270;2023-07-24T11:02:53;22.20;94.00
802;DHT22;383;48.766;9.270;2023-07-24T11:05:20;22.10;94.20
802;DHT22;383;48.766;9.270;2023-07-24T11:07:48;22.00;94.80
802;DHT22;383;48.766;9.270;2023-07-24T11:10:16;21.90;94.80
802;DHT22;383;48.766;9.270;2023-07-24T11:12:42;21.70;94.90
802;DHT22;383;48.766;9.270;2023-07-24T11:15:10;21.60;95.50
802;DHT22;383;48.766;9.270;2023-07-24T11:17:38;21.50;95.80
802;DHT22;383;48.766;9.270;2023-07-24T11:20:08;21.50;96.40
802;DHT22;383;48.766;9.270;2023-07-24T11:22:35;21.40;96.40
802;DHT22;383;48.766;9.270;2023-07-24T11:25:06;21.30;97.10
802;DHT22;383;48.766;9.270;2023-07-24T11:27:37;21.30;97.00
802;DHT22;383;48.766;9.270;2023-07-24T11:30:05;21.30;97.00
802;DHT22;383;48.766;9.270;2023-07-24T11:32:31;21.20;97.00
802;DHT22;383;48.766;9.270;2023-07-24T11:35:00;21.20;97.20
802;DHT22;383;48.766;9.270;2023-07-24T11:37:28;21.20;96.40
802;DHT22;383;48.766;9.270;2023-07-24T11:39:56;21.20;96.20
802;DHT22;383;48.766;9.270;2023-07-24T11:42:25;21.00;96.20
802;DHT22;383;48.766;9.270;2023-07-24T11:44:52;21.10;96.10
802;DHT22;383;48.766;9.270;2023-07-24T11:47:19;21.20;95.70
802;DHT22;383;48.766;9.270;2023-07-24T11:49:56;21.30;95.80
802;DHT22;383;48.766;9.270;2023-07-24T11:52:23;21.60;96.70
802;DHT22;383;48.766;9.270;2023-07-24T11:54:56;21.90;96.00
802;DHT22;383;48.766;9.270;2023-07-24T11:57:27;22.30;95.00
802;DHT22;383;48.766;9.270;2023-07-24T11:59:54;22.60;92.70
802;DHT22;383;48.766;9.270;2023-07-24T12:02:25;22.80;92.00
802;DHT22;383;48.766;9.270;2023-07-24T12:04:55;22.80;91.60
802;DHT22;383;48.766;9.270;2023-07-24T12:07:23;22.80;90.90
802;DHT22;383;48.766;9.270;2023-07-24T12:09:51;22.70;90.70
802;DHT22;383;48.766;9.270;2023-07-24T12:12:18;22.60;91.60
802;DHT22;383;48.766;9.270;2023-07-24T12:14:46;22.50;92.20
802;DHT22;383;48.766;9.270;2023-07-24T12:17:17;22.40;92.10
802;DHT22;383;48.766;9.270;2023-07-24T12:19:45;22.50;91.50
802;DHT22;383;48.766;9.270;2023-07-24T12:22:12;22.40;92.90
802;DHT22;383;48.766;9.270;2023-07-24T12:24:39;22.40;93.10
802;DHT22;383;48.766;9.270;2023-07-24T12:27:06;22.40;92.90
802;DHT22;383;48.766;9.270;2023-07-24T12:29:32;22.50;93.80
802;DHT22;383;48.766;9.270;2023-07-24T12:32:00;22.60;93.80
802;DHT22;383;48.766;9.270;2023-07-24T12:34:27;22.80;92.80
802;DHT22;383;48.766;9.270;2023-07-24T12:36:54;22.90;91.50
802;DHT22;383;48.766;9.270;2023-07-24T12:39:20;22.90;91.40
802;DHT22;383;48.766;9.270;2023-07-24T12:41:47;23.00;92.80
802;DHT22;383;48.766;9.270;2023-07-24T12:44:14;23.10;91.80
802;DHT22;383;48.766;9.270;2023-07-24T12:46:41;23.10;90.40
802;DHT22;383;48.766;9.270;2023-07-24T12:49:09;23.10;91.40
802;DHT22;383;48.766;9.270;2023-07-24T12:51:35;23.20;92.00
802;DHT22;383;48.766;9.270;2023-07-24T12:54:02;23.20;92.40
802;DHT22;383;48.766;9.270;2023-07-24T12:56:29;23.30;92.80
802;DHT22;383;48.766;9.270;2023-07-24T12:58:55;23.40;89.60
802;DHT22;383;48.766;9.270;2023-07-24T13:01:22;23.60;90.10
802;DHT22;383;48.766;9.270;2023-07-24T13:03:50;23.80;85.70
802;DHT22;383;48.766;9.270;2023-07-24T13:06:18;24.00;86.40
802;DHT22;383;48.766;9.270;2023-07-24T13:08:45;24.10;85.60
802;DHT22;383;48.766;9.270;2023-07-24T13:11:11;24.30;84.40
802;DHT22;383;48.766;9.270;2023-07-24T13:13:38;24.50;83.60
802;DHT22;383;48.766;9.270;2023-07-24T13:16:05;24.60;84.30
802;DHT22;383;48.766;9.270;2023-07-24T13:18:32;24.70;85.10
802;DHT22;383;48.766;9.270;2023-07-24T13:20:59;24.90;85.10
802;DHT22;383;48.766;9.270;2023-07-24T13:23:27;25.10;83.20
802;DHT22;383;48.766;9.270;2023-07-24T13:25:53;25.30;84.00
802;DHT22;383;48.766;9.270;2023-07-24T13:28:20;25.50;82.60
802;DHT22;383;48.766;9.270;2023-07-24T13:30:47;25.70;83.00
802;DHT22;383;48.766;9.270;2023-07-24T13:33:14;25.80;80.40
802;DHT22;383;48.766;9.270;2023-07-24T13:35:41;25.90;80.40
802;DHT22;383;48.766;9.270;2023-07-24T13:38:08;26.10;80.20
802;DHT22;383;48.766;9.270;2023-07-24T13:40:36;26.00;75.00
802;DHT22;383;48.766;9.270;2023-07-24T13:43:02;26.00;77.40
802;DHT22;383;48.766;9.270;2023-07-24T13:45:30;26.10;77.30
802;DHT22;383;48.766;9.270;2023-07-24T13:47:57;26.20;73.40
802;DHT22;383;48.766;9.270;2023-07-24T13:50:24;26.30;73.40
802;DHT22;383;48.766;9.270;2023-07-24T13:52:51;26.40;71.90
802;DHT22;383;48.766;9.270;2023-07-24T13:55:17;26.50;72.00
802;DHT22;383;48.766;9.270;2023-07-24T13:57:45;26.40;71.30
802;DHT22;383;48.766;9.270;2023-07-24T14:00:12;26.60;72.30
802;DHT22;383;48.766;9.270;2023-07-24T14:02:39;26.70;70.70
802;DHT22;383;48.766;9.270;2023-07-24T14:05:07;26.90;70.50
802;DHT22;383;48.766;9.270;2023-07-24T14:07:34;27.00;72.00
802;DHT22;383;48.766;9.270;2023-07-24T14:10:01;27.00;69.70
802;DHT22;383;48.766;9.270;2023-07-24T14:12:27;26.90;70.90
802;DHT22;383;48.766;9.270;2023-07-24T14:14:55;26.80;68.90
802;DHT22;383;48.766;9.270;2023-07-24T14:17:22;26.80;68.90
802;DHT22;383;48.766;9.270;2023-07-24T14:19:49;26.90;71.10
802;DHT22;383;48.766;9.270;2023-07-24T14:22:15;27.10;69.20
802;DHT22;383;48.766;9.270;2023-07-24T14:24:42;27.30;67.60
802;DHT22;383;48.766;9.270;2023-07-24T14:27:09;27.40;65.20
802;DHT22;383;48.766;9.270;2023-07-24T14:29:36;27.70;65.60
802;DHT22;383;48.766;9.270;2023-07-24T14:32:05;28.10;65.40
802;DHT22;383;48.766;9.270;2023-07-24T14:34:31;28.40;65.20
802;DHT22;383;48.766;9.270;2023-07-24T14:36:58;28.50;63.30
802;DHT22;383;48.766;9.270;2023-07-24T14:39:25;28.20;64.20
802;DHT22;383;48.766;9.270;2023-07-24T14:41:52;28.00;64.90
802;DHT22;383;48.766;9.270;2023-07-24T14:44:18;27.80;64.70
802;DHT22;383;48.766;9.270;2023-07-24T14:46:45;27.70;65.60
802;DHT22;383;48.766;9.270;2023-07-24T14:49:13;27.60;65.50
802;DHT22;383;48.766;9.270;2023-07-24T14:51:40;27.60;65.80
802;DHT22;383;48.766;9.270;2023-07-24T14:54:06;27.50;66.70
802;DHT22;383;48.766;9.270;2023-07-24T14:56:33;27.50;67.40
802;DHT22;383;48.766;9.270;2023-07-24T14:59:00;27.40;64.90
802;DHT22;383;48.766;9.270;2023-07-24T15:01:27;27.30;62.20
802;DHT22;383;48.766;9.270;2023-07-24T15:03:54;27.10;64.50
802;DHT22;383;48.766;9.270;2023-07-24T15:06:23;27.00;63.10
802;DHT22;383;48.766;9.270;2023-07-24T15:08:50;26.90;63.50
802;DHT22;383;48.766;9.270;2023-07-24T15:11:19;27.00;64.20
802;DHT22;383;48.766;9.270;2023-07-24T15:13:45;26.80;63.80
802;DHT22;383;48.766;9.270;2023-07-24T15:16:12;26.60;65.20
802;DHT22;383;48.766;9.270;2023-07-24T15:18:38;26.60;65.60
802;DHT22;383;48.766;9.270;2023-07-24T15:21:05;26.70;67.00
802;DHT22;383;48.766;9.270;2023-07-24T15:23:33;26.70;66.30
802;DHT22;383;48.766;9.270;2023-07-24T15:26:00;26.60;66.70
802;DHT22;383;48.766;9.270;2023-07-24T15:28:27;26.50;66.00
802;DHT22;383;48.766;9.270;2023-07-24T15:30:54;26.50;66.20
802;DHT22;383;48.766;9.270;2023-07-24T15:33:20;26.40;64.70
802;DHT22;383;48.766;9.270;2023-07-24T15:35:48;26.00;66.40
802;DHT22;383;48.766;9.270;2023-07-24T15:38:15;25.90;67.20
802;DHT22;383;48.766;9.270;2023-07-24T15:40:43;25.70;69.10
802;DHT22;383;48.766;9.270;2023-07-24T15:43:09;25.50;70.00
802;DHT22;383;48.766;9.270;2023-07-24T15:45:36;25.40;71.50
802;DHT22;383;48.766;9.270;2023-07-24T15:48:04;25.20;71.10
802;DHT22;383;48.766;9.270;2023-07-24T15:50:30;25.10;71.60
802;DHT22;383;48.766;9.270;2023-07-24T15:52:57;24.90;72.80
802;DHT22;383;48.766;9.270;2023-07-24T15:55:24;24.70;73.20
802;DHT22;383;48.766;9.270;2023-07-24T15:57:52;24.60;73.70
802;DHT22;383;48.766;9.270;2023-07-24T16:00:20;24.70;73.30
802;DHT22;383;48.766;9.270;2023-07-24T16:02:46;24.70;74.50
802;DHT22;383;48.766;9.270;2023-07-24T16:05:17;24.60;75.20
802;DHT22;383;48.766;9.270;2023-07-24T16:07:44;24.50;75.40
802;DHT22;383;48.766;9.270;2023-07-24T16:10:11;24.60;76.00
802;DHT22;383;48.766;9.270;2023-07-24T16:12:38;24.60;74.50
802;DHT22;383;48.766;9.270;2023-07-24T16:15:08;24.60;74.60
802;DHT22;383;48.766;9.270;2023-07-24T16:17:34;24.60;73.20
802;DHT22;383;48.766;9.270;2023-07-24T16:20:01;24.70;73.70
802;DHT22;383;48.766;9.270;2023-07-24T16:22:29;24.60;73.00
802;DHT22;383;48.766;9.270;2023-07-24T16:24:56;24.70;73.00
802;DHT22;383;48.766;9.270;2023-07-24T16:27:23;24.80;72.60
802;DHT22;383;48.766;9.270;2023-07-24T16:29:49;24.70;72.10
802;DHT22;383;48.766;9.270;2023-07-24T16:32:18;24.70;72.40
802;DHT22;383;48.766;9.270;2023-07-24T16:34:44;24.70;72.80
802;DHT22;383;48.766;9.270;2023-07-24T16:37:11;24.80;72.30